createdAt,value
2022-07-29T00:01:53.305Z,1.00
2022-07-29T00:04:21.461Z,1.30
2022-07-29T00:06:48.497Z,0.90
2022-07-29T00:09:15.211Z,0.95
2022-07-29T00:11:41.897Z,0.95
2022-07-29T00:14:08.771Z,0.93
2022-07-29T00:16:35.905Z,1.10
2022-07-29T00:19:02.659Z,1.37
2022-07-29T00:21:29.435Z,1.10
2022-07-29T00:23:56.081Z,1.33
2022-07-29T00:26:22.813Z,0.98
2022-07-29T00:28:49.409Z,1.00
2022-07-29T00:31:16.219Z,1.30
2022-07-29T00:33:42.892Z,0.90
2022-07-29T00:36:09.494Z,1.40
2022-07-29T00:38:36.092Z,0.98
2022-07-29T00:41:03.019Z,0.80
2022-07-29T00:43:29.619Z,0.85
2022-07-29T00:45:56.242Z,1.00
2022-07-29T00:48:22.892Z,1.17
2022-07-29T00:50:51.048Z,1.10
2022-07-29T00:53:17.940Z,0.80
2022-07-29T00:55:44.599Z,1.20
2022-07-29T00:58:14.482Z,0.70
2022-07-29T01:00:43.044Z,0.95
2022-07-29T01:03:12.586Z,1.00
2022-07-29T01:05:50.020Z,1.00
2022-07-29T01:08:19.764Z,0.85
2022-07-29T01:10:47.914Z,1.00
2022-07-29T01:13:17.045Z,1.00
2022-07-29T01:16:24.134Z,0.98
2022-07-29T01:18:54.134Z,0.98
2022-07-29T01:21:51.947Z,0.80
2022-07-29T01:24:40.036Z,1.10
2022-07-29T01:27:24.756Z,1.23
2022-07-29T01:29:58.277Z,0.90
2022-07-29T01:32:30.130Z,1.05
2022-07-29T01:34:59.489Z,1.08
2022-07-29T01:37:31.604Z,1.20
2022-07-29T01:40:01.146Z,1.00
2022-07-29T01:42:40.105Z,1.08
2022-07-29T01:45:15.509Z,0.87
2022-07-29T01:47:47.521Z,1.02
2022-07-29T01:50:18.486Z,1.17
2022-07-29T01:52:50.608Z,1.25
2022-07-29T01:55:21.457Z,0.95
2022-07-29T01:57:49.516Z,1.37
2022-07-29T02:00:17.081Z,1.20
2022-07-29T02:02:46.546Z,1.20
2022-07-29T02:05:16.761Z,1.50
2022-07-29T02:07:45.047Z,1.23
2022-07-29T02:10:14.010Z,1.73
2022-07-29T02:12:43.593Z,1.30
2022-07-29T02:15:18.066Z,1.23
2022-07-29T02:17:56.072Z,1.33
2022-07-29T02:20:26.262Z,1.05
2022-07-29T02:22:54.890Z,1.65
2022-07-29T02:25:24.998Z,1.20
2022-07-29T02:28:04.922Z,1.37
2022-07-29T02:30:32.907Z,1.00
2022-07-29T02:33:00.601Z,1.45
2022-07-29T02:35:28.150Z,1.20
2022-07-29T02:38:21.607Z,1.35
2022-07-29T02:40:51.625Z,1.02
2022-07-29T02:43:19.632Z,1.20
2022-07-29T02:45:48.371Z,1.15
2022-07-29T02:48:23.492Z,1.23
2022-07-29T02:50:56.393Z,1.20
2022-07-29T02:53:28.807Z,1.00
2022-07-29T02:56:15.631Z,1.20
2022-07-29T02:58:47.930Z,1.35
2022-07-29T03:01:21.915Z,1.30
2022-07-29T03:03:50.571Z,1.50
2022-07-29T03:06:28.577Z,1.55
2022-07-29T03:09:10.492Z,1.08
2022-07-29T03:11:49.552Z,1.70
2022-07-29T03:14:19.348Z,1.42
2022-07-29T03:16:46.789Z,0.90
2022-07-29T03:19:14.167Z,1.77
2022-07-29T03:21:40.896Z,1.35
2022-07-29T03:24:10.486Z,1.30
2022-07-29T03:26:38.476Z,1.42
2022-07-29T03:29:05.147Z,1.35
2022-07-29T03:31:33.574Z,1.30
2022-07-29T03:34:00.519Z,1.33
2022-07-29T03:36:27.229Z,1.25
2022-07-29T03:38:54.461Z,1.70
2022-07-29T03:41:23.595Z,1.20
2022-07-29T03:43:52.818Z,1.90
2022-07-29T03:46:24.453Z,1.45
2022-07-29T03:48:57.569Z,1.62
2022-07-29T03:51:33.852Z,1.52
2022-07-29T03:54:07.907Z,1.35
2022-07-29T03:56:40.790Z,1.42
2022-07-29T03:59:08.702Z,1.30
2022-07-29T04:01:36.380Z,1.20
2022-07-29T04:04:05.632Z,1.60
2022-07-29T04:06:40.417Z,1.35
2022-07-29T04:09:07.045Z,1.33
2022-07-29T04:11:56.893Z,1.50
2022-07-29T04:14:24.492Z,1.58
2022-07-29T04:16:51.152Z,1.30
2022-07-29T04:19:17.724Z,1.40
2022-07-29T04:21:46.142Z,1.70
2022-07-29T04:24:13.122Z,1.17
2022-07-29T04:26:39.897Z,1.37
2022-07-29T04:29:06.572Z,1.10
2022-07-29T04:31:33.277Z,1.30
2022-07-29T04:33:59.956Z,1.17
2022-07-29T04:36:29.388Z,1.08
2022-07-29T04:38:57.067Z,1.10
2022-07-29T04:41:23.659Z,1.10
2022-07-29T04:44:02.059Z,1.52
2022-07-29T04:46:29.172Z,1.40
2022-07-29T04:48:56.078Z,1.20
2022-07-29T04:51:22.881Z,1.10
2022-07-29T04:53:49.749Z,1.10
2022-07-29T04:56:16.350Z,1.02
2022-07-29T04:58:43.000Z,1.20
2022-07-29T05:01:09.716Z,1.10
2022-07-29T05:03:36.346Z,1.10
2022-07-29T05:06:02.992Z,1.00
2022-07-29T05:08:29.638Z,1.02
2022-07-29T05:10:56.298Z,0.80
2022-07-29T05:13:22.948Z,0.73
2022-07-29T05:15:49.648Z,0.90
2022-07-29T05:18:16.662Z,0.98
2022-07-29T05:20:43.319Z,1.12
2022-07-29T05:23:10.100Z,1.08
2022-07-29T05:25:40.816Z,0.85
2022-07-29T05:28:10.849Z,1.02
2022-07-29T05:30:37.566Z,0.80
2022-07-29T05:33:04.319Z,1.30
2022-07-29T05:35:30.963Z,1.10
2022-07-29T05:37:57.574Z,1.40
2022-07-29T05:40:24.206Z,1.40
2022-07-29T05:42:50.924Z,1.02
2022-07-29T05:45:17.544Z,1.00
2022-07-29T05:47:44.266Z,1.27
2022-07-29T05:50:10.946Z,1.20
2022-07-29T05:52:37.622Z,1.30
2022-07-29T05:55:06.572Z,1.20
2022-07-29T06:00:00.333Z,1.33
2022-07-29T06:02:26.993Z,1.02
2022-07-29T06:04:53.762Z,1.42
2022-07-29T06:07:20.824Z,1.20
2022-07-29T06:09:47.453Z,1.20
2022-07-29T06:12:14.161Z,1.15
2022-07-29T06:14:41.121Z,1.42
2022-07-29T06:17:07.961Z,1.30
2022-07-29T06:19:37.767Z,1.45
2022-07-29T06:22:05.006Z,1.35
2022-07-29T06:24:31.761Z,1.30
2022-07-29T06:26:59.459Z,1.20
2022-07-29T06:29:26.285Z,1.30
2022-07-29T06:31:53.125Z,1.33
2022-07-29T06:34:20.586Z,1.40
2022-07-29T06:36:47.597Z,1.20
2022-07-29T06:39:15.480Z,1.15
2022-07-29T06:41:42.252Z,1.60
2022-07-29T06:44:09.000Z,1.80
2022-07-29T06:46:35.728Z,1.30
2022-07-29T06:49:03.318Z,1.33
2022-07-29T06:51:30.562Z,1.52
2022-07-29T06:54:02.425Z,1.60
2022-07-29T06:56:39.492Z,1.80
2022-07-29T06:59:08.461Z,1.35
2022-07-29T07:01:36.927Z,1.27
2022-07-29T07:06:30.358Z,1.50
2022-07-29T07:08:56.992Z,1.25
2022-07-29T07:11:23.682Z,1.30
2022-07-29T07:13:50.315Z,1.20
2022-07-29T07:16:17.261Z,1.20
2022-07-29T07:18:46.073Z,1.23
2022-07-29T07:21:19.207Z,1.30
2022-07-29T07:23:47.180Z,1.23
2022-07-29T07:26:13.925Z,1.50
2022-07-29T07:28:40.582Z,1.27
2022-07-29T07:31:07.295Z,1.33
2022-07-29T07:33:33.940Z,1.40
2022-07-29T07:36:00.619Z,1.45
2022-07-29T07:38:27.237Z,1.40
2022-07-29T07:40:53.889Z,1.60
2022-07-29T07:43:20.585Z,1.45
2022-07-29T07:45:47.242Z,1.20
2022-07-29T07:48:13.963Z,1.60
2022-07-29T07:50:40.633Z,1.30
2022-07-29T07:53:07.466Z,1.50
2022-07-29T07:55:53.560Z,1.58
2022-07-29T07:58:20.797Z,1.10
2022-07-29T08:00:48.306Z,1.62
2022-07-29T08:03:16.682Z,1.80
2022-07-29T08:05:43.633Z,1.45
2022-07-29T08:08:10.254Z,1.40
2022-07-29T08:10:56.669Z,1.52
2022-07-29T08:13:28.233Z,1.30
2022-07-29T08:15:58.981Z,1.45
2022-07-29T08:18:30.988Z,1.20
2022-07-29T08:20:58.749Z,1.48
2022-07-29T08:23:25.612Z,1.50
2022-07-29T08:25:52.350Z,1.58
2022-07-29T08:28:21.758Z,1.35
2022-07-29T08:30:52.850Z,1.60
2022-07-29T08:33:19.523Z,1.40
2022-07-29T08:35:46.660Z,1.55
2022-07-29T08:38:13.337Z,1.50
2022-07-29T08:40:40.471Z,1.40
2022-07-29T08:43:09.184Z,1.48
2022-07-29T08:45:47.718Z,1.30
2022-07-29T08:48:17.377Z,1.27
2022-07-29T08:50:46.567Z,1.55
2022-07-29T08:53:16.525Z,1.60
2022-07-29T08:55:48.988Z,1.80
2022-07-29T08:58:16.545Z,1.62
2022-07-29T09:00:52.540Z,1.40
2022-07-29T09:03:21.375Z,1.10
2022-07-29T09:05:48.801Z,1.35
2022-07-29T09:08:17.219Z,1.40
2022-07-29T09:10:44.829Z,1.10
2022-07-29T09:13:11.552Z,1.40
2022-07-29T09:15:38.186Z,1.40
2022-07-29T09:18:04.831Z,1.00
2022-07-29T09:20:51.395Z,1.40
2022-07-29T09:23:22.931Z,1.30
2022-07-29T09:25:51.070Z,1.12
2022-07-29T09:28:19.108Z,1.30
2022-07-29T09:30:57.504Z,1.20
2022-07-29T09:33:25.237Z,1.60
2022-07-29T09:36:09.368Z,0.93
2022-07-29T09:38:38.283Z,1.08
2022-07-29T09:41:06.943Z,1.20
2022-07-29T09:43:34.855Z,1.00
2022-07-29T09:46:12.718Z,1.50
2022-07-29T09:48:39.521Z,0.97
2022-07-29T09:51:07.473Z,1.27
2022-07-29T09:53:38.427Z,1.33
2022-07-29T09:56:06.056Z,0.93
2022-07-29T09:58:34.743Z,1.10
2022-07-29T10:01:02.108Z,1.20
2022-07-29T10:03:28.937Z,1.10
2022-07-29T10:06:14.588Z,1.05
2022-07-29T10:08:42.642Z,0.80
2022-07-29T10:11:15.156Z,0.85
2022-07-29T10:13:43.688Z,1.00
2022-07-29T10:16:11.071Z,0.82
2022-07-29T10:18:42.275Z,0.70
2022-07-29T10:21:10.375Z,1.00
2022-07-29T10:23:46.293Z,1.10
2022-07-29T10:26:14.084Z,0.88
2022-07-29T10:28:40.895Z,0.70
2022-07-29T10:31:14.074Z,1.00
2022-07-29T10:34:02.364Z,0.70
2022-07-29T10:36:57.690Z,1.00
2022-07-29T10:39:44.608Z,0.75
2022-07-29T10:42:16.877Z,1.00
2022-07-29T10:44:44.819Z,1.02
2022-07-29T10:47:32.282Z,0.93
2022-07-29T10:50:04.770Z,0.90
2022-07-29T10:52:57.999Z,0.80
2022-07-29T10:55:43.361Z,1.00
2022-07-29T10:58:26.906Z,0.98
2022-07-29T11:00:56.325Z,0.80
2022-07-29T11:03:49.525Z,1.00
2022-07-29T11:06:18.004Z,0.80
2022-07-29T11:09:25.800Z,0.75
2022-07-29T11:12:02.949Z,1.00
2022-07-29T11:14:52.924Z,0.83
2022-07-29T11:17:19.920Z,1.10
2022-07-29T11:19:52.228Z,0.90
2022-07-29T11:22:43.168Z,0.85
2022-07-29T11:25:18.911Z,0.82
2022-07-29T11:28:16.705Z,0.77
2022-07-29T11:30:54.871Z,0.90
2022-07-29T11:33:54.071Z,0.55
2022-07-29T11:36:19.791Z,1.00
2022-07-29T11:39:27.215Z,1.30
2022-07-29T11:42:28.516Z,0.98
2022-07-29T11:45:04.317Z,0.95
2022-07-29T11:47:49.289Z,1.23
2022-07-29T11:50:31.408Z,0.98
2022-07-29T11:53:01.056Z,1.20
2022-07-29T11:55:38.669Z,1.00
2022-07-29T12:01:15.232Z,0.90
2022-07-29T12:03:43.719Z,1.17
2022-07-29T12:06:18.273Z,1.10
2022-07-29T12:07:03.661Z,0.85
2022-07-29T12:08:48.059Z,1.10
2022-07-29T12:11:21.256Z,0.77
2022-07-29T12:13:49.915Z,1.12
2022-07-29T12:16:16.823Z,0.90
2022-07-29T12:18:59.974Z,1.00
2022-07-29T12:21:28.891Z,1.10
2022-07-29T12:24:01.761Z,1.10
2022-07-29T12:26:31.733Z,0.93
2022-07-29T12:29:11.475Z,1.05
2022-07-29T12:31:45.488Z,0.90
2022-07-29T12:34:14.199Z,1.20
2022-07-29T12:36:42.410Z,0.90
2022-07-29T12:39:10.296Z,1.23
2022-07-29T12:41:37.376Z,1.00
2022-07-29T12:44:04.228Z,1.15
2022-07-29T12:46:30.932Z,1.62
2022-07-29T12:48:58.456Z,1.02
2022-07-29T12:51:41.742Z,1.02
2022-07-29T12:54:14.555Z,1.10
2022-07-29T12:56:45.334Z,0.95
2022-07-29T12:59:21.922Z,0.93
2022-07-29T13:01:52.275Z,0.90
2022-07-29T13:04:27.502Z,1.10
2022-07-29T13:07:54.073Z,0.90
2022-07-29T13:10:18.025Z,0.90
2022-07-29T13:13:06.633Z,1.10
2022-07-29T13:15:34.004Z,0.98
2022-07-29T13:18:00.807Z,1.05
2022-07-29T13:20:30.720Z,1.00
2022-07-29T13:23:01.825Z,1.05
2022-07-29T13:25:33.095Z,0.95
2022-07-29T13:28:00.484Z,1.00
2022-07-29T13:30:27.264Z,1.08
2022-07-29T13:32:54.049Z,0.70
2022-07-29T13:35:21.395Z,1.00
2022-07-29T13:37:48.220Z,1.17
2022-07-29T13:40:15.141Z,1.00
2022-07-29T13:42:42.578Z,0.90
2022-07-29T13:45:10.649Z,1.00
2022-07-29T13:47:37.849Z,0.90
2022-07-29T13:50:06.827Z,1.20
2022-07-29T13:52:34.381Z,1.00
2022-07-29T13:55:01.512Z,0.77
2022-07-29T13:57:28.758Z,0.93
2022-07-29T13:59:55.701Z,1.00
2022-07-29T14:02:25.637Z,0.80
2022-07-29T14:04:54.582Z,0.85
2022-07-29T14:09:48.425Z,1.15
2022-07-29T14:12:15.146Z,1.10
2022-07-29T14:14:42.552Z,1.20
2022-07-29T14:17:10.130Z,1.10
2022-07-29T14:19:36.979Z,1.02
2022-07-29T14:22:05.701Z,1.00
2022-07-29T14:24:36.420Z,1.20
2022-07-29T14:27:04.639Z,0.98
2022-07-29T14:29:37.148Z,0.85
2022-07-29T14:32:08.700Z,1.10
2022-07-29T14:34:36.693Z,1.00
2022-07-29T14:37:06.601Z,1.00
2022-07-29T14:39:36.961Z,1.27
2022-07-29T14:42:06.500Z,0.95
2022-07-29T14:44:33.177Z,1.10
2022-07-29T14:47:00.835Z,1.20
2022-07-29T14:49:28.433Z,1.27
2022-07-29T14:51:55.366Z,1.00
2022-07-29T14:54:22.191Z,1.00
2022-07-29T14:56:50.382Z,1.50
2022-07-29T14:59:17.467Z,1.50
2022-07-29T15:01:44.306Z,0.80
2022-07-29T15:04:10.906Z,1.10
2022-07-29T15:06:38.870Z,1.17
2022-07-29T15:09:05.657Z,1.35
2022-07-29T15:11:32.386Z,1.33
2022-07-29T15:14:05.263Z,1.23
2022-07-29T15:16:31.917Z,1.00
2022-07-29T15:19:01.173Z,1.20
2022-07-29T15:21:28.663Z,1.02
2022-07-29T15:23:55.434Z,1.20
2022-07-29T15:26:22.477Z,1.15
2022-07-29T15:28:49.253Z,0.90
2022-07-29T15:31:16.070Z,1.10
2022-07-29T15:33:42.822Z,0.80
2022-07-29T15:36:09.706Z,1.30
2022-07-29T15:38:41.788Z,1.05
2022-07-29T15:41:08.925Z,1.20
2022-07-29T15:43:38.461Z,0.70
2022-07-29T15:46:23.981Z,0.90
2022-07-29T15:48:50.789Z,0.98
2022-07-29T15:51:17.488Z,0.90
2022-07-29T15:53:44.120Z,0.90
2022-07-29T15:56:21.027Z,0.98
2022-07-29T15:58:47.614Z,0.70
2022-07-29T16:01:14.657Z,1.02
2022-07-29T16:03:45.957Z,0.93
2022-07-29T16:06:13.314Z,1.35
2022-07-29T16:08:40.008Z,1.00
2022-07-29T16:11:06.655Z,0.98
2022-07-29T16:13:33.501Z,1.10
2022-07-29T16:16:02.843Z,1.17
2022-07-29T16:18:30.497Z,1.50
2022-07-29T16:20:57.729Z,1.02
2022-07-29T16:23:24.826Z,0.90
2022-07-29T16:25:59.770Z,1.00
2022-07-29T16:28:27.639Z,1.10
2022-07-29T16:30:54.424Z,1.30
2022-07-29T16:33:21.080Z,1.17
2022-07-29T16:35:47.661Z,1.10
2022-07-29T16:38:14.277Z,1.23
2022-07-29T16:40:40.964Z,0.98
2022-07-29T16:43:08.080Z,1.10
2022-07-29T16:45:45.343Z,0.68
2022-07-29T16:48:14.340Z,1.00
2022-07-29T16:50:43.286Z,1.42
2022-07-29T16:53:10.855Z,1.00
2022-07-29T16:55:37.640Z,1.02
2022-07-29T16:58:04.733Z,1.02
2022-07-29T17:00:31.748Z,1.10
2022-07-29T17:03:00.033Z,1.10
2022-07-29T17:05:29.634Z,1.10
2022-07-29T17:08:16.478Z,1.75
2022-07-29T17:10:43.096Z,1.25
2022-07-29T17:13:09.783Z,1.12
2022-07-29T17:15:36.671Z,1.50
2022-07-29T17:18:12.261Z,0.95
2022-07-29T17:20:41.063Z,1.05
2022-07-29T17:23:07.776Z,1.77
2022-07-29T17:25:34.485Z,1.33
2022-07-29T17:28:01.601Z,1.48
2022-07-29T17:30:29.359Z,2.30
2022-07-29T17:32:56.149Z,1.77
2022-07-29T17:35:41.325Z,4.78
2022-07-29T17:38:07.983Z,2.47
2022-07-29T17:40:34.571Z,5.47
2022-07-29T17:43:01.228Z,3.42
2022-07-29T17:45:50.382Z,2.35
2022-07-29T17:48:14.685Z,1.90
2022-07-29T17:50:41.303Z,2.83
2022-07-29T17:53:15.532Z,1.70
2022-07-29T17:55:45.375Z,1.80
2022-07-29T17:58:12.521Z,1.83
2022-07-29T18:00:39.379Z,1.70
2022-07-29T18:03:06.391Z,1.73
2022-07-29T18:05:33.567Z,1.60
2022-07-29T18:08:00.214Z,1.52
2022-07-29T18:10:27.008Z,1.50
2022-07-29T18:12:53.918Z,1.37
2022-07-29T18:15:20.557Z,1.62
2022-07-29T18:17:56.870Z,2.10
2022-07-29T18:20:27.831Z,2.72
2022-07-29T18:22:54.553Z,2.65
2022-07-29T18:25:22.146Z,2.25
2022-07-29T18:27:48.831Z,2.97
2022-07-29T18:30:15.668Z,2.67
2022-07-29T18:32:54.372Z,3.40
2022-07-29T18:35:29.340Z,2.58
2022-07-29T18:38:01.948Z,2.78
2022-07-29T18:40:30.048Z,2.30
2022-07-29T18:42:57.204Z,2.17
2022-07-29T18:45:28.543Z,1.83
2022-07-29T18:47:56.438Z,1.92
2022-07-29T18:50:29.013Z,2.03
2022-07-29T18:52:58.650Z,3.37
2022-07-29T18:55:26.267Z,4.32
2022-07-29T18:57:54.987Z,5.32
2022-07-29T19:00:24.011Z,8.13
2022-07-29T19:02:51.199Z,2.12
2022-07-29T19:05:18.476Z,1.70
2022-07-29T19:07:45.146Z,1.77
2022-07-29T19:10:12.308Z,1.90
2022-07-29T19:12:39.195Z,1.80
2022-07-29T19:15:07.616Z,1.92
2022-07-29T19:17:34.243Z,1.92
2022-07-29T19:20:00.960Z,2.12
2022-07-29T19:22:27.838Z,2.15
2022-07-29T19:24:54.463Z,2.05
2022-07-29T19:27:21.076Z,2.20
2022-07-29T19:29:47.768Z,2.25
2022-07-29T19:32:25.381Z,2.00
2022-07-29T19:35:11.296Z,1.20
2022-07-29T19:37:37.955Z,1.50
2022-07-29T19:40:06.312Z,1.23
2022-07-29T19:42:33.083Z,1.60
2022-07-29T19:45:00.055Z,1.17
2022-07-29T19:47:26.747Z,1.12
2022-07-29T19:49:53.348Z,1.08
2022-07-29T19:52:20.020Z,1.17
2022-07-29T19:54:46.598Z,1.10
2022-07-29T19:57:13.241Z,1.25
2022-07-29T19:59:41.117Z,1.20
2022-07-29T20:02:10.853Z,1.17
2022-07-29T20:04:38.656Z,1.25
2022-07-29T20:07:06.467Z,1.35
2022-07-29T20:09:33.270Z,0.93
2022-07-29T20:11:59.970Z,1.05
2022-07-29T20:14:26.622Z,1.00
2022-07-29T20:16:54.449Z,0.88
2022-07-29T20:19:21.403Z,1.10
2022-07-29T20:21:48.075Z,0.70
2022-07-29T20:24:14.678Z,1.08
2022-07-29T20:26:41.600Z,0.90
2022-07-29T20:29:08.344Z,1.05
2022-07-29T20:31:35.022Z,1.08
2022-07-29T20:34:02.003Z,1.10
2022-07-29T20:36:28.723Z,0.90
2022-07-29T20:38:56.150Z,0.93
2022-07-29T20:41:22.906Z,1.05
2022-07-29T20:43:52.791Z,1.10
2022-07-29T20:46:19.463Z,1.10
2022-07-29T20:48:47.219Z,1.37
2022-07-29T20:51:14.788Z,1.00
2022-07-29T20:53:41.826Z,1.15
2022-07-29T20:56:08.874Z,1.10
2022-07-29T20:58:36.611Z,1.00
2022-07-29T21:01:04.210Z,1.02
2022-07-29T21:03:32.517Z,1.15
2022-07-29T21:06:00.217Z,1.25
2022-07-29T21:08:27.293Z,1.30
2022-07-29T21:10:54.253Z,1.12
2022-07-29T21:13:22.416Z,1.08
2022-07-29T21:15:50.638Z,1.10
2022-07-29T21:18:37.191Z,1.27
2022-07-29T21:21:05.152Z,1.27
2022-07-29T21:23:31.814Z,1.20
2022-07-29T21:25:58.590Z,1.37
2022-07-29T21:28:29.511Z,1.20
2022-07-29T21:31:01.369Z,1.58
2022-07-29T21:33:29.994Z,1.00
2022-07-29T21:36:26.611Z,1.55
2022-07-29T21:38:44.058Z,1.23
2022-07-29T21:41:12.599Z,1.33
2022-07-29T21:43:41.852Z,1.33
2022-07-29T21:46:08.950Z,1.15
2022-07-29T21:48:35.642Z,1.40
2022-07-29T21:51:02.313Z,1.52
2022-07-29T21:53:28.971Z,1.02
2022-07-29T21:55:57.402Z,1.60
2022-07-29T21:58:24.760Z,1.80
2022-07-29T22:00:51.661Z,1.17
2022-07-29T22:03:18.542Z,1.23
2022-07-29T22:05:45.320Z,1.58
2022-07-29T22:08:12.024Z,1.25
2022-07-29T22:10:38.691Z,1.40
2022-07-29T22:13:05.363Z,1.80
2022-07-29T22:15:32.323Z,1.37
2022-07-29T22:17:59.603Z,1.50
2022-07-29T22:20:26.378Z,1.37
2022-07-29T22:22:53.965Z,1.35
2022-07-29T22:25:21.357Z,1.55
2022-07-29T22:27:48.004Z,1.40
2022-07-29T22:30:15.561Z,1.50
2022-07-29T22:32:43.123Z,1.20
2022-07-29T22:35:10.394Z,1.73
2022-07-29T22:37:37.469Z,1.50
2022-07-29T22:40:04.828Z,1.48
2022-07-29T22:42:31.517Z,1.20
2022-07-29T22:44:58.113Z,1.37
2022-07-29T22:47:39.043Z,1.55
2022-07-29T22:50:11.475Z,1.40
2022-07-29T22:52:38.084Z,1.40
2022-07-29T22:55:05.042Z,1.70
2022-07-29T22:57:31.740Z,1.15
2022-07-29T23:00:01.583Z,1.10
2022-07-29T23:02:28.540Z,1.30
2022-07-29T23:04:55.208Z,1.33
2022-07-29T23:07:21.810Z,1.70
2022-07-29T23:09:48.470Z,1.23
2022-07-29T23:12:15.091Z,1.45
2022-07-29T23:14:41.833Z,1.40
2022-07-29T23:17:08.517Z,1.30
2022-07-29T23:19:35.192Z,1.45
2022-07-29T23:22:01.807Z,1.42
2022-07-29T23:24:28.395Z,1.40
2022-07-29T23:26:55.090Z,1.30
2022-07-29T23:29:21.724Z,1.23
2022-07-29T23:31:48.539Z,1.23
2022-07-29T23:34:15.315Z,1.52
2022-07-29T23:36:42.428Z,1.12
2022-07-29T23:39:13.239Z,1.50
2022-07-29T23:41:40.055Z,1.23
2022-07-29T23:44:06.794Z,1.70
2022-07-29T23:46:33.484Z,1.60
2022-07-29T23:49:00.288Z,1.23
2022-07-29T23:51:29.072Z,1.60
2022-07-29T23:53:56.127Z,1.30
2022-07-29T23:56:23.381Z,1.40
2022-07-29T23:58:50.283Z,1.10
